createdAt,value
2022-11-26T00:04:36.560Z,7.5
2022-11-26T00:09:35.803Z,7.3
2022-11-26T00:14:36.386Z,7.3
2022-11-26T00:19:36.176Z,7.2
2022-11-26T00:24:36.854Z,7.2
2022-11-26T00:29:36.102Z,7.1
2022-11-26T00:34:36.688Z,7.1
2022-11-26T00:39:36.092Z,6.9
2022-11-26T00:44:36.525Z,6.9
2022-11-26T00:49:36.048Z,6.9
2022-11-26T00:54:36.566Z,6.9
2022-11-26T00:59:35.865Z,6.8
2022-11-26T01:04:36.493Z,6.8
2022-11-26T01:09:36.489Z,6.8
2022-11-26T01:14:37.003Z,6.7
2022-11-26T01:19:36.363Z,6.7
2022-11-26T01:24:36.156Z,6.7
2022-11-26T01:29:37.000Z,6.7
2022-11-26T01:34:36.757Z,6.6
2022-11-26T01:39:36.101Z,6.4
2022-11-26T01:44:37.061Z,6.4
2022-11-26T01:49:36.519Z,6.3
2022-11-26T01:54:36.176Z,6.3
2022-11-26T01:59:36.634Z,6.2
2022-11-26T02:04:36.604Z,6.2
2022-11-26T02:09:36.155Z,6.2
2022-11-26T02:14:36.681Z,6.2
2022-11-26T02:19:36.201Z,6.1
2022-11-26T02:24:36.801Z,6.1
2022-11-26T02:29:36.135Z,6
2022-11-26T02:34:38.041Z,6
2022-11-26T02:39:36.659Z,5.9
2022-11-26T02:44:36.130Z,5.9
2022-11-26T02:49:36.200Z,5.9
2022-11-26T02:54:36.727Z,5.8
2022-11-26T02:59:36.581Z,5.7
2022-11-26T03:04:36.866Z,5.7
2022-11-26T03:09:36.389Z,5.6
2022-11-26T03:14:36.907Z,5.6
2022-11-26T03:19:36.148Z,5.5
2022-11-26T03:24:36.449Z,5.5
2022-11-26T03:29:36.605Z,5.6
2022-11-26T03:34:37.093Z,5.6
2022-11-26T03:39:35.850Z,5.7
2022-11-26T03:44:36.923Z,5.7
2022-11-26T03:49:35.846Z,5.8
2022-11-26T03:54:36.649Z,5.8
2022-11-26T03:59:36.786Z,5.8
2022-11-26T04:04:36.318Z,5.8
2022-11-26T04:09:36.317Z,5.8
2022-11-26T04:14:36.985Z,5.8
2022-11-26T04:19:36.349Z,5.8
2022-11-26T04:24:36.486Z,5.8
2022-11-26T04:29:35.961Z,5.9
2022-11-26T04:34:36.264Z,5.9
2022-11-26T04:39:36.723Z,5.9
2022-11-26T04:44:36.704Z,5.9
2022-11-26T04:49:36.556Z,5.9
2022-11-26T04:54:37.182Z,5.9
2022-11-26T04:59:36.475Z,6
2022-11-26T05:04:37.148Z,6
2022-11-26T05:09:35.904Z,5.9
2022-11-26T05:14:37.093Z,5.9
2022-11-26T05:19:35.913Z,5.9
2022-11-26T05:24:36.621Z,5.9
2022-11-26T05:29:35.953Z,5.8
2022-11-26T05:34:36.553Z,5.8
2022-11-26T05:39:35.938Z,5.8
2022-11-26T05:44:36.482Z,5.8
2022-11-26T05:49:36.995Z,5.7
2022-11-26T05:54:36.627Z,5.7
2022-11-26T05:59:36.064Z,5.7
2022-11-26T06:04:36.714Z,5.7
2022-11-26T06:09:36.515Z,5.6
2022-11-26T06:14:41.629Z,5.6
2022-11-26T06:19:36.203Z,5.7
2022-11-26T06:24:36.636Z,5.7
2022-11-26T06:29:36.892Z,5.7
2022-11-26T06:34:36.442Z,5.7
2022-11-26T06:39:36.830Z,5.7
2022-11-26T06:44:36.666Z,5.7
2022-11-26T06:49:36.059Z,5.7
2022-11-26T06:54:36.904Z,5.7
2022-11-26T06:59:36.429Z,5.8
2022-11-26T07:04:36.930Z,5.8
2022-11-26T07:09:36.835Z,5.8
2022-11-26T07:14:36.404Z,5.8
2022-11-26T07:19:36.722Z,5.8
2022-11-26T07:24:36.465Z,5.8
2022-11-26T07:29:36.296Z,5.7
2022-11-26T07:34:37.073Z,5.7
2022-11-26T07:39:36.584Z,5.7
2022-11-26T07:44:37.077Z,5.7
2022-11-26T07:49:36.606Z,5.7
2022-11-26T07:54:37.270Z,5.7
2022-11-26T07:59:36.520Z,5.7
2022-11-26T08:04:37.464Z,5.7
2022-11-26T08:09:37.050Z,5.7
2022-11-26T08:14:36.398Z,5.7
2022-11-26T08:19:36.748Z,5.8
2022-11-26T08:24:36.657Z,5.8
2022-11-26T08:29:36.951Z,5.8
2022-11-26T08:34:36.456Z,5.8
2022-11-26T08:39:36.766Z,5.8
2022-11-26T08:44:36.585Z,5.8
2022-11-26T08:49:36.002Z,5.8
2022-11-26T08:54:39.684Z,5.8
2022-11-26T08:59:37.099Z,5.8
2022-11-26T09:04:37.369Z,5.8
2022-11-26T09:09:36.117Z,5.9
2022-11-26T09:14:36.578Z,5.9
2022-11-26T09:19:36.108Z,5.9
2022-11-26T09:24:36.872Z,5.9
2022-11-26T09:29:36.234Z,6.1
2022-11-26T09:34:37.227Z,6.1
2022-11-26T09:39:36.844Z,6.2
2022-11-26T09:44:36.729Z,6.2
2022-11-26T09:49:36.604Z,6.2
2022-11-26T09:54:37.172Z,6.2
2022-11-26T09:59:36.612Z,6.4
2022-11-26T10:04:37.046Z,6.4
2022-11-26T10:09:36.622Z,6.6
2022-11-26T10:14:37.552Z,6.6
2022-11-26T10:19:36.998Z,6.7
2022-11-26T10:24:36.815Z,6.7
2022-11-26T10:29:36.340Z,6.7
2022-11-26T10:34:39.187Z,6.7
2022-11-26T10:39:36.760Z,6.7
2022-11-26T10:44:36.276Z,6.7
2022-11-26T10:49:36.578Z,6.8
2022-11-26T10:54:36.900Z,6.8
2022-11-26T10:59:36.444Z,6.8
2022-11-26T11:04:36.662Z,6.8
2022-11-26T11:09:36.479Z,6.8
2022-11-26T11:14:42.234Z,6.8
2022-11-26T11:19:37.054Z,6.8
2022-11-26T11:24:36.211Z,6.8
2022-11-26T11:29:36.387Z,6.9
2022-11-26T11:34:37.052Z,6.9
2022-11-26T11:39:36.392Z,7
2022-11-26T11:44:36.928Z,7
2022-11-26T11:49:36.546Z,7.1
2022-11-26T11:54:37.263Z,7.1
2022-11-26T11:59:36.664Z,7.2
2022-11-26T12:04:37.412Z,7.2
2022-11-26T12:09:36.889Z,7.2
2022-11-26T12:14:36.098Z,7.2
2022-11-26T12:19:36.209Z,7.3
2022-11-26T12:24:36.694Z,7.3
2022-11-26T12:29:36.880Z,7.2
2022-11-26T12:34:36.277Z,7.2
2022-11-26T12:39:36.667Z,7.2
2022-11-26T12:44:37.336Z,7.2
2022-11-26T12:49:36.785Z,7.3
2022-11-26T12:54:37.188Z,7.3
2022-11-26T12:59:36.582Z,7.2
2022-11-26T13:04:49.220Z,7.2
2022-11-26T13:09:36.433Z,7.2
2022-11-26T13:14:37.209Z,7.2
2022-11-26T13:19:36.914Z,7.2
2022-11-26T13:24:36.318Z,7.2
2022-11-26T13:29:36.573Z,7.3
2022-11-26T13:34:37.094Z,7.3
2022-11-26T13:39:36.406Z,7.3
2022-11-26T13:44:37.086Z,7.3
2022-11-26T13:49:36.385Z,7.3
2022-11-26T13:54:36.624Z,7.3
2022-11-26T13:59:36.860Z,7.3
2022-11-26T14:04:37.615Z,7.3
2022-11-26T14:09:37.280Z,7.2
2022-11-26T14:14:36.909Z,7.2
2022-11-26T14:19:36.576Z,7.2
2022-11-26T14:24:36.784Z,7.2
2022-11-26T14:29:36.981Z,7.2
2022-11-26T14:34:36.530Z,7.2
2022-11-26T14:39:36.689Z,7.2
2022-11-26T14:44:37.566Z,7.2
2022-11-26T14:49:36.405Z,7.2
2022-11-26T14:54:36.674Z,7.2
2022-11-26T14:59:36.781Z,7.2
2022-11-26T15:04:36.307Z,7.2
2022-11-26T15:09:36.720Z,7.3
2022-11-26T15:14:36.779Z,7.3
2022-11-26T15:19:36.272Z,7.3
2022-11-26T15:24:37.572Z,7.3
2022-11-26T15:29:37.221Z,7.3
2022-11-26T15:34:36.696Z,7.3
2022-11-26T15:39:36.487Z,7.3
2022-11-26T15:44:41.975Z,7.3
2022-11-26T15:49:37.082Z,7.3
2022-11-26T15:55:04.442Z,7.3
2022-11-26T15:59:36.221Z,7.3
2022-11-26T16:04:37.930Z,7.3
2022-11-26T16:09:36.585Z,7.3
2022-11-26T16:14:37.160Z,7.3
2022-11-26T16:19:37.325Z,7.3
2022-11-26T16:24:37.526Z,7.3
2022-11-26T16:29:36.964Z,7.2
2022-11-26T16:34:37.529Z,7.2
2022-11-26T16:39:40.736Z,7.1
2022-11-26T16:44:37.310Z,7.1
2022-11-26T16:49:36.588Z,7.1
2022-11-26T16:54:36.340Z,7.1
2022-11-26T16:59:36.662Z,7.1
2022-11-26T17:04:37.380Z,7.1
2022-11-26T17:09:37.384Z,7
2022-11-26T17:14:36.658Z,7
2022-11-26T17:19:37.528Z,7
2022-11-26T17:24:37.031Z,7
2022-11-26T17:29:42.341Z,7
2022-11-26T17:34:37.055Z,7
2022-11-26T17:39:36.644Z,7
2022-11-26T17:44:36.775Z,7
2022-11-26T17:49:37.692Z,7.1
2022-11-26T17:54:37.031Z,7.1
2022-11-26T17:59:37.309Z,7.1
2022-11-26T18:04:36.964Z,7.1
2022-11-26T18:09:37.511Z,7.1
2022-11-26T18:14:36.889Z,7.1
2022-11-26T18:19:42.083Z,7.1
2022-11-26T18:24:36.633Z,7.1
2022-11-26T18:29:37.438Z,7.1
2022-11-26T18:34:36.736Z,7.1
2022-11-26T18:39:37.068Z,7.1
2022-11-26T18:44:36.483Z,7.1
2022-11-26T18:49:37.033Z,7.1
2022-11-26T18:54:36.349Z,7.1
2022-11-26T18:59:36.752Z,7.1
2022-11-26T19:04:37.017Z,7.1
2022-11-26T19:09:37.836Z,7.1
2022-11-26T19:14:37.202Z,7.1
2022-11-26T19:19:36.383Z,7.1
2022-11-26T19:24:36.709Z,7.1
2022-11-26T19:29:36.955Z,7.1
2022-11-26T19:34:37.179Z,7.1
2022-11-26T19:39:37.787Z,7.1
2022-11-26T19:44:36.400Z,7.1
2022-11-26T19:49:36.770Z,7.1
2022-11-26T19:54:37.134Z,7.1
2022-11-26T19:59:37.455Z,7.1
2022-11-26T20:04:36.806Z,7.1
2022-11-26T20:09:37.285Z,7.1
2022-11-26T20:14:36.563Z,7.1
2022-11-26T20:19:37.317Z,7.1
2022-11-26T20:24:36.786Z,7.1
2022-11-26T20:29:37.223Z,7.1
2022-11-26T20:34:36.819Z,7.1
2022-11-26T20:39:37.122Z,7.1
2022-11-26T20:44:36.967Z,7.1
2022-11-26T20:49:42.508Z,7.1
2022-11-26T20:54:36.634Z,7.1
2022-11-26T20:59:37.105Z,7.1
2022-11-26T21:04:37.291Z,7.1
2022-11-26T21:09:37.210Z,7
2022-11-26T21:14:36.582Z,7
2022-11-26T21:19:37.252Z,7
2022-11-26T21:24:36.904Z,7
2022-11-26T21:29:37.463Z,7
2022-11-26T21:34:37.108Z,7
2022-11-26T21:39:37.790Z,6.9
2022-11-26T21:44:37.376Z,6.9
2022-11-26T21:49:36.971Z,6.9
2022-11-26T21:54:37.320Z,6.9
2022-11-26T21:59:37.625Z,6.9
2022-11-26T22:05:11.475Z,6.9
2022-11-26T22:09:37.157Z,6.8
2022-11-26T22:14:36.459Z,6.8
2022-11-26T22:19:36.856Z,6.7
2022-11-26T22:24:37.305Z,6.7
2022-11-26T22:29:37.958Z,6.7
2022-11-26T22:34:37.385Z,6.7
2022-11-26T22:39:37.193Z,6.6
2022-11-26T22:44:36.509Z,6.6
2022-11-26T22:49:36.752Z,6.6
2022-11-26T22:54:37.306Z,6.6
2022-11-26T22:59:37.681Z,6.6
2022-11-26T23:04:37.216Z,6.6
2022-11-26T23:09:36.766Z,6.6
2022-11-26T23:14:37.104Z,6.6
2022-11-26T23:19:37.498Z,6.6
2022-11-26T23:24:36.870Z,6.6
2022-11-26T23:29:37.255Z,6.6
2022-11-26T23:34:36.851Z,6.6
2022-11-26T23:39:37.221Z,6.6
2022-11-26T23:44:36.586Z,6.6
2022-11-26T23:49:37.083Z,6.5
2022-11-26T23:54:37.460Z,6.5
2022-11-26T23:59:36.690Z,6.5
